createdAt,value
2019-04-16T00:00:22.530Z,47.90
2019-04-16T00:02:58.036Z,47.80
2019-04-16T00:05:31.111Z,48.40
2019-04-16T00:08:19.565Z,48.20
2019-04-16T00:10:41.878Z,48.30
2019-04-16T00:13:14.964Z,48.50
2019-04-16T00:15:43.702Z,48.70
2019-04-16T00:18:12.377Z,48.70
2019-04-16T00:20:59.046Z,48.80
2019-04-16T00:23:38.485Z,48.60
2019-04-16T00:26:08.289Z,49.20
2019-04-16T00:28:36.958Z,49.10
2019-04-16T00:31:05.948Z,49.20
2019-04-16T00:33:34.676Z,49.20
2019-04-16T00:36:03.349Z,49.30
2019-04-16T00:38:40.658Z,49.20
2019-04-16T00:41:02.412Z,49.40
2019-04-16T00:43:31.069Z,49.80
2019-04-16T00:45:59.732Z,49.80
2019-04-16T00:48:28.409Z,50.10
2019-04-16T00:50:57.080Z,50.10
2019-04-16T00:53:25.821Z,50.40
2019-04-16T00:55:54.497Z,50.20
2019-04-16T00:58:23.170Z,50.70
2019-04-16T01:00:51.905Z,50.70
2019-04-16T01:03:20.576Z,51.40
2019-04-16T01:05:49.384Z,51.80
2019-04-16T01:08:18.048Z,52.40
2019-04-16T01:10:46.794Z,52.60
2019-04-16T01:13:15.534Z,52.80
2019-04-16T01:15:44.346Z,53.00
2019-04-16T01:18:13.013Z,52.90
2019-04-16T01:20:43.279Z,53.00
2019-04-16T01:23:12.010Z,53.10
2019-04-16T01:25:40.782Z,53.50
2019-04-16T01:28:11.160Z,53.60
2019-04-16T01:30:44.216Z,54.00
2019-04-16T01:33:26.488Z,54.10
2019-04-16T01:36:02.641Z,54.10
2019-04-16T01:38:35.713Z,54.00
2019-04-16T01:41:06.109Z,54.10
2019-04-16T01:43:34.837Z,54.40
2019-04-16T01:46:03.582Z,54.90
2019-04-16T01:48:32.320Z,54.90
2019-04-16T01:51:01.259Z,55.10
2019-04-16T01:53:29.953Z,55.10
2019-04-16T01:55:58.643Z,55.00
2019-04-16T01:58:27.300Z,55.70
2019-04-16T02:00:56.028Z,55.40
2019-04-16T02:03:24.700Z,55.50
2019-04-16T02:05:54.832Z,55.90
2019-04-16T02:08:23.754Z,56.20
2019-04-16T02:10:52.593Z,56.10
2019-04-16T02:13:21.257Z,56.10
2019-04-16T02:15:50.645Z,56.20
2019-04-16T02:18:20.320Z,56.10
2019-04-16T02:20:48.989Z,56.10
2019-04-16T02:23:17.726Z,55.90
2019-04-16T02:25:48.512Z,56.20
2019-04-16T02:28:16.786Z,56.10
2019-04-16T02:30:45.457Z,56.20
2019-04-16T02:33:14.193Z,55.90
2019-04-16T02:35:42.870Z,56.20
2019-04-16T02:38:13.629Z,55.90
2019-04-16T02:40:41.989Z,55.80
2019-04-16T02:43:10.723Z,56.30
2019-04-16T02:45:39.415Z,56.10
2019-04-16T02:48:14.950Z,56.00
2019-04-16T02:50:42.805Z,55.90
2019-04-16T02:53:29.510Z,56.10
2019-04-16T02:56:02.255Z,56.00
2019-04-16T02:58:34.357Z,55.80
2019-04-16T03:01:20.824Z,55.90
2019-04-16T03:03:59.750Z,55.70
2019-04-16T03:06:31.644Z,55.80
2019-04-16T03:08:58.881Z,55.80
2019-04-16T03:11:27.621Z,55.70
2019-04-16T03:13:59.213Z,55.60
2019-04-16T03:16:28.310Z,55.80
2019-04-16T03:19:01.219Z,56.10
2019-04-16T03:21:29.882Z,56.60
2019-04-16T03:23:58.557Z,56.60
2019-04-16T03:26:27.228Z,56.40
2019-04-16T03:28:59.212Z,56.80
2019-04-16T03:31:26.215Z,56.80
2019-04-16T03:33:54.953Z,56.70
2019-04-16T03:36:26.511Z,57.40
2019-04-16T03:38:54.015Z,57.40
2019-04-16T03:41:24.867Z,57.60
2019-04-16T03:43:53.105Z,57.80
2019-04-16T03:46:21.774Z,58.30
2019-04-16T03:48:52.687Z,58.60
2019-04-16T03:51:20.774Z,58.60
2019-04-16T03:53:50.289Z,58.70
2019-04-16T03:56:19.095Z,58.40
2019-04-16T03:58:47.693Z,58.50
2019-04-16T04:01:16.436Z,58.10
2019-04-16T04:03:45.115Z,58.10
2019-04-16T04:06:13.780Z,58.00
2019-04-16T04:08:42.454Z,58.10
2019-04-16T04:11:11.215Z,58.20
2019-04-16T04:13:39.934Z,58.40
2019-04-16T04:16:08.680Z,58.30
2019-04-16T04:18:37.344Z,58.10
2019-04-16T04:21:06.095Z,57.80
2019-04-16T04:23:34.768Z,58.00
2019-04-16T04:26:05.594Z,57.60
2019-04-16T04:28:33.899Z,57.70
2019-04-16T04:31:02.569Z,57.90
2019-04-16T04:33:41.613Z,57.40
2019-04-16T04:36:10.327Z,57.60
2019-04-16T04:38:39.957Z,57.30
2019-04-16T04:41:08.882Z,57.00
2019-04-16T04:43:37.553Z,57.20
2019-04-16T04:46:06.402Z,57.00
2019-04-16T04:48:35.075Z,56.70
2019-04-16T04:51:07.249Z,56.60
2019-04-16T04:53:34.054Z,56.40
2019-04-16T04:56:02.797Z,56.30
2019-04-16T04:58:34.022Z,55.80
2019-04-16T05:01:01.849Z,54.80
2019-04-16T05:03:32.179Z,54.50
2019-04-16T05:06:11.292Z,53.40
2019-04-16T05:08:39.972Z,53.00
2019-04-16T05:11:08.646Z,52.40
2019-04-16T05:13:37.313Z,51.70
2019-04-16T05:16:07.113Z,50.40
2019-04-16T05:18:41.395Z,49.40
2019-04-16T05:21:06.198Z,48.80
2019-04-16T05:23:37.609Z,48.10
2019-04-16T05:26:05.426Z,47.10
2019-04-16T05:28:34.116Z,46.30
2019-04-16T05:31:02.790Z,45.90
2019-04-16T05:33:31.465Z,46.00
2019-04-16T05:36:00.143Z,44.70
2019-04-16T05:38:28.820Z,44.70
2019-04-16T05:40:57.501Z,43.50
2019-04-16T05:43:29.984Z,44.00
2019-04-16T05:45:56.574Z,42.50
2019-04-16T05:48:25.552Z,43.00
2019-04-16T05:50:54.201Z,42.80
2019-04-16T05:53:22.946Z,41.20
2019-04-16T05:55:53.196Z,41.30
2019-04-16T05:58:21.869Z,41.70
2019-04-16T06:00:52.251Z,42.20
2019-04-16T06:03:22.312Z,41.40
2019-04-16T06:05:51.177Z,42.00
2019-04-16T06:08:19.861Z,41.90
2019-04-16T06:10:50.849Z,43.30
2019-04-16T06:13:29.521Z,43.00
2019-04-16T06:16:02.773Z,42.10
2019-04-16T06:18:37.965Z,41.50
2019-04-16T06:21:10.703Z,40.80
2019-04-16T06:24:03.120Z,40.30
2019-04-16T06:26:30.962Z,40.50
2019-04-16T06:29:17.242Z,40.60
2019-04-16T06:32:03.754Z,41.20
2019-04-16T06:34:34.068Z,40.00
2019-04-16T06:37:13.489Z,39.80
2019-04-16T06:40:00.974Z,39.00
2019-04-16T06:42:34.273Z,38.10
2019-04-16T06:45:05.141Z,38.20
2019-04-16T06:47:36.072Z,37.10
2019-04-16T06:50:30.684Z,37.00
2019-04-16T06:53:06.689Z,37.10
2019-04-16T06:55:37.005Z,37.20
2019-04-16T06:58:07.394Z,36.50
2019-04-16T07:00:37.717Z,35.10
2019-04-16T07:03:13.769Z,35.70
2019-04-16T07:05:44.077Z,35.10
2019-04-16T07:08:37.487Z,35.20
2019-04-16T07:11:07.448Z,34.90
2019-04-16T07:13:36.193Z,34.90
2019-04-16T07:16:04.944Z,34.00
2019-04-16T07:18:35.623Z,33.50
2019-04-16T07:21:03.928Z,34.30
2019-04-16T07:23:32.782Z,35.50
2019-04-16T07:26:03.785Z,35.80
2019-04-16T07:28:33.526Z,35.60
2019-04-16T07:31:32.769Z,36.40
2019-04-16T07:34:00.616Z,37.70
2019-04-16T07:36:31.004Z,37.50
2019-04-16T07:39:28.896Z,37.40
2019-04-16T07:42:09.835Z,37.20
2019-04-16T07:44:36.512Z,37.90
2019-04-16T07:47:07.955Z,36.80
2019-04-16T07:49:40.697Z,35.70
2019-04-16T07:52:12.309Z,35.50
2019-04-16T07:54:59.005Z,35.70
2019-04-16T07:57:27.684Z,37.50
2019-04-16T07:59:56.427Z,37.90
2019-04-16T08:02:25.249Z,37.00
2019-04-16T08:04:54.022Z,36.70
2019-04-16T08:07:22.701Z,37.10
2019-04-16T08:09:51.369Z,35.30
2019-04-16T08:12:29.986Z,35.20
2019-04-16T08:14:50.446Z,35.60
2019-04-16T08:17:19.228Z,36.20
2019-04-16T08:19:49.030Z,35.60
2019-04-16T08:22:18.077Z,34.80
2019-04-16T08:24:57.532Z,35.20
2019-04-16T08:27:24.173Z,35.50
2019-04-16T08:29:52.848Z,34.40
2019-04-16T08:32:21.593Z,33.70
2019-04-16T08:34:50.280Z,33.50
2019-04-16T08:37:18.952Z,32.60
2019-04-16T08:39:47.633Z,32.40
2019-04-16T08:42:16.385Z,33.10
2019-04-16T08:44:45.053Z,33.20
2019-04-16T08:47:13.801Z,31.30
2019-04-16T08:49:42.650Z,30.70
2019-04-16T08:52:11.457Z,31.30
2019-04-16T08:54:40.136Z,32.60
2019-04-16T08:57:08.831Z,33.30
2019-04-16T08:59:39.465Z,35.20
2019-04-16T09:02:07.965Z,35.40
2019-04-16T09:04:36.638Z,36.00
2019-04-16T09:07:12.204Z,37.90
2019-04-16T09:09:39.978Z,38.30
2019-04-16T09:12:09.686Z,37.40
2019-04-16T09:14:40.168Z,37.60
2019-04-16T09:17:16.168Z,37.80
2019-04-16T09:19:46.512Z,38.00
2019-04-16T09:22:16.996Z,37.60
2019-04-16T09:24:58.899Z,37.20
2019-04-16T09:27:34.933Z,37.10
2019-04-16T09:30:16.804Z,37.30
2019-04-16T09:32:45.388Z,37.40
2019-04-16T09:35:19.825Z,36.70
2019-04-16T09:37:47.793Z,36.80
2019-04-16T09:40:18.599Z,35.80
2019-04-16T09:42:47.201Z,35.40
2019-04-16T09:45:17.665Z,31.90
2019-04-16T09:47:46.398Z,32.70
2019-04-16T09:50:15.152Z,32.90
2019-04-16T09:52:43.815Z,33.60
2019-04-16T09:55:15.234Z,31.70
2019-04-16T09:57:42.882Z,29.80
2019-04-16T10:00:16.850Z,30.00
2019-04-16T10:02:44.885Z,30.20
2019-04-16T10:05:13.725Z,29.50
2019-04-16T10:07:42.479Z,27.30
2019-04-16T10:10:11.238Z,27.90
2019-04-16T10:12:40.048Z,26.90
2019-04-16T10:15:08.969Z,30.60
2019-04-16T10:17:37.728Z,32.20
2019-04-16T10:20:06.844Z,32.00
2019-04-16T10:22:35.586Z,32.60
2019-04-16T10:25:14.702Z,32.60
2019-04-16T10:27:45.107Z,32.70
2019-04-16T10:30:15.795Z,32.40
2019-04-16T10:32:44.591Z,31.50
2019-04-16T10:35:13.406Z,32.00
2019-04-16T10:37:41.993Z,32.70
2019-04-16T10:40:31.042Z,32.50
2019-04-16T10:43:01.427Z,32.40
2019-04-16T10:45:40.868Z,32.30
2019-04-16T10:48:27.601Z,32.10
2019-04-16T10:51:06.931Z,32.20
2019-04-16T10:53:40.070Z,32.10
2019-04-16T10:56:13.424Z,32.00
2019-04-16T10:58:43.789Z,31.70
2019-04-16T11:01:30.314Z,31.80
2019-04-16T11:04:04.847Z,31.50
2019-04-16T11:06:41.536Z,32.00
2019-04-16T11:09:10.337Z,32.60
2019-04-16T11:11:38.966Z,33.10
2019-04-16T11:14:07.781Z,33.20
2019-04-16T11:16:38.010Z,32.40
2019-04-16T11:19:06.734Z,33.60
2019-04-16T11:21:35.546Z,33.50
2019-04-16T11:24:04.296Z,34.30
2019-04-16T11:26:32.968Z,35.00
2019-04-16T11:29:01.685Z,34.40
2019-04-16T11:31:30.502Z,34.30
2019-04-16T11:33:59.180Z,34.90
2019-04-16T11:36:30.640Z,35.60
2019-04-16T11:38:58.174Z,35.50
2019-04-16T11:41:27.006Z,36.20
2019-04-16T11:43:55.728Z,36.30
2019-04-16T11:46:24.569Z,35.80
2019-04-16T11:48:53.346Z,36.20
2019-04-16T11:51:21.991Z,37.30
2019-04-16T11:53:50.825Z,36.10
2019-04-16T11:56:22.360Z,37.40
2019-04-16T11:58:49.811Z,38.60
2019-04-16T12:01:23.057Z,39.00
2019-04-16T12:04:10.973Z,39.70
2019-04-16T12:06:40.196Z,40.80
2019-04-16T12:09:26.403Z,39.60
2019-04-16T12:11:59.748Z,40.10
2019-04-16T12:14:34.852Z,39.90
2019-04-16T12:17:07.777Z,40.00
2019-04-16T12:19:54.215Z,39.20
2019-04-16T12:22:30.332Z,39.60
2019-04-16T12:25:16.679Z,40.00
2019-04-16T12:27:52.909Z,39.50
2019-04-16T12:30:26.045Z,39.20
2019-04-16T12:33:14.366Z,39.00
2019-04-16T12:35:47.688Z,39.10
2019-04-16T12:38:18.859Z,39.60
2019-04-16T12:40:58.255Z,39.40
2019-04-16T12:43:31.704Z,39.90
2019-04-16T12:46:17.933Z,39.60
2019-04-16T12:48:54.270Z,40.00
2019-04-16T12:51:27.507Z,39.80
2019-04-16T12:54:13.846Z,40.40
2019-04-16T12:57:00.187Z,40.20
2019-04-16T12:59:42.193Z,41.80
2019-04-16T13:02:24.584Z,41.70
2019-04-16T13:04:58.012Z,42.30
2019-04-16T13:07:40.393Z,42.80
2019-04-16T13:10:10.968Z,43.30
2019-04-16T13:12:50.454Z,43.00
2019-04-16T13:15:20.832Z,42.70
2019-04-16T13:18:09.359Z,42.60
2019-04-16T13:20:39.736Z,42.40
2019-04-16T13:23:28.141Z,42.70
2019-04-16T13:26:14.873Z,42.90
2019-04-16T13:28:43.668Z,42.80
2019-04-16T13:31:12.383Z,42.50
2019-04-16T13:33:43.645Z,42.20
2019-04-16T13:36:11.467Z,42.40
2019-04-16T13:38:56.742Z,42.20
2019-04-16T13:41:26.981Z,41.70
2019-04-16T13:43:57.499Z,41.00
2019-04-16T13:46:28.995Z,41.30
2019-04-16T13:48:59.650Z,41.80
2019-04-16T13:51:30.246Z,41.60
2019-04-16T13:54:09.234Z,41.50
2019-04-16T13:56:51.531Z,41.80
2019-04-16T13:59:36.261Z,41.00
2019-04-16T14:02:06.670Z,41.20
2019-04-16T14:04:37.119Z,41.20
2019-04-16T14:07:05.959Z,41.30
2019-04-16T14:09:34.728Z,41.30
2019-04-16T14:12:03.443Z,41.00
2019-04-16T14:14:32.140Z,40.50
2019-04-16T14:17:09.357Z,40.80
2019-04-16T14:19:31.355Z,41.10
2019-04-16T14:22:00.142Z,41.60
2019-04-16T14:24:28.841Z,41.70
2019-04-16T14:26:57.555Z,41.30
2019-04-16T14:29:26.356Z,42.10
2019-04-16T14:31:55.142Z,41.50
2019-04-16T14:34:25.554Z,41.90
2019-04-16T14:36:56.909Z,42.60
2019-04-16T14:39:32.404Z,42.90
2019-04-16T14:42:01.106Z,43.10
2019-04-16T14:44:31.687Z,44.00
2019-04-16T14:47:02.095Z,44.40
2019-04-16T14:49:30.886Z,44.50
2019-04-16T14:52:01.978Z,44.80
2019-04-16T14:54:31.651Z,45.00
2019-04-16T14:57:01.984Z,45.40
2019-04-16T14:59:41.120Z,45.60
2019-04-16T15:02:11.473Z,46.30
2019-04-16T15:04:58.304Z,47.00
2019-04-16T15:07:31.642Z,47.40
2019-04-16T15:10:02.909Z,47.90
2019-04-16T15:12:45.318Z,48.30
2019-04-16T15:15:24.594Z,48.80
2019-04-16T15:18:10.083Z,49.10
2019-04-16T15:20:43.478Z,49.50
2019-04-16T15:23:19.517Z,50.00
2019-04-16T15:25:52.363Z,50.40
2019-04-16T15:28:31.857Z,50.80
2019-04-16T15:31:11.032Z,51.40
2019-04-16T15:33:41.438Z,51.90
2019-04-16T15:36:18.419Z,52.50
2019-04-16T15:38:49.218Z,52.20
2019-04-16T15:41:19.575Z,52.60
2019-04-16T15:44:08.128Z,52.80
2019-04-16T15:46:54.777Z,53.40
2019-04-16T15:49:25.683Z,53.50
2019-04-16T15:52:02.448Z,53.60
2019-04-16T15:54:39.038Z,54.00
2019-04-16T15:57:09.487Z,54.00
2019-04-16T15:59:56.015Z,54.40
2019-04-16T16:02:29.358Z,54.50
2019-04-16T16:04:59.771Z,54.90
2019-04-16T16:07:28.879Z,55.20
2019-04-16T16:09:59.667Z,55.70
2019-04-16T16:12:29.010Z,55.70
2019-04-16T16:14:57.707Z,55.60
2019-04-16T16:17:26.478Z,55.90
2019-04-16T16:19:55.383Z,55.60
2019-04-16T16:22:24.051Z,56.10
2019-04-16T16:24:52.829Z,56.60
2019-04-16T16:27:21.666Z,56.80
2019-04-16T16:29:50.380Z,57.30
2019-04-16T16:32:19.150Z,57.40
2019-04-16T16:34:47.936Z,57.90
2019-04-16T16:37:16.696Z,58.00
2019-04-16T16:39:45.467Z,58.20
2019-04-16T16:42:14.254Z,58.30
2019-04-16T16:44:43.021Z,58.60
2019-04-16T16:47:22.623Z,58.80
2019-04-16T16:49:51.322Z,59.10
2019-04-16T16:52:36.846Z,59.30
2019-04-16T16:55:11.251Z,59.50
2019-04-16T16:57:50.382Z,59.70
2019-04-16T17:00:29.787Z,59.90
2019-04-16T17:03:02.661Z,60.10
2019-04-16T17:05:32.994Z,60.60
2019-04-16T17:08:01.768Z,60.70
2019-04-16T17:10:30.524Z,61.20
2019-04-16T17:12:59.298Z,61.70
2019-04-16T17:15:28.002Z,61.70
2019-04-16T17:17:56.876Z,62.10
2019-04-16T17:20:25.602Z,62.40
2019-04-16T17:22:54.376Z,62.80
2019-04-16T17:25:35.632Z,63.20
2019-04-16T17:27:53.569Z,63.60
2019-04-16T17:30:22.342Z,64.10
2019-04-16T17:32:51.050Z,64.50
2019-04-16T17:35:19.748Z,64.80
2019-04-16T17:37:48.378Z,65.20
2019-04-16T17:40:34.920Z,66.40
2019-04-16T17:43:16.717Z,65.90
2019-04-16T17:45:49.999Z,66.10
2019-04-16T17:48:35.230Z,66.40
2019-04-16T17:51:08.594Z,66.80
2019-04-16T17:53:47.866Z,67.10
2019-04-16T17:56:34.484Z,67.10
2019-04-16T17:59:10.999Z,67.70
2019-04-16T18:01:53.539Z,68.10
2019-04-16T18:04:23.889Z,68.40
2019-04-16T18:07:10.012Z,68.50
2019-04-16T18:09:40.445Z,68.80
2019-04-16T18:12:26.602Z,70.50
2019-04-16T18:14:59.734Z,70.90
2019-04-16T18:17:46.816Z,71.30
2019-04-16T18:20:22.576Z,71.70
2019-04-16T18:23:04.839Z,72.10
2019-04-16T18:25:56.808Z,71.90
2019-04-16T18:28:22.845Z,72.10
2019-04-16T18:30:53.523Z,72.50
2019-04-16T18:33:26.344Z,72.70
2019-04-16T18:35:56.693Z,73.20
2019-04-16T18:38:27.021Z,73.30
2019-04-16T18:41:03.561Z,73.40
2019-04-16T18:43:50.266Z,73.90
2019-04-16T18:46:20.599Z,74.20
2019-04-16T18:48:54.210Z,74.20
2019-04-16T18:51:23.931Z,74.30
2019-04-16T18:53:51.634Z,73.80
2019-04-16T18:56:20.268Z,73.90
2019-04-16T18:58:48.974Z,74.20
2019-04-16T19:01:24.800Z,75.10
2019-04-16T19:03:52.792Z,75.80
2019-04-16T19:06:21.568Z,75.70
2019-04-16T19:08:50.447Z,75.40
2019-04-16T19:11:20.554Z,75.10
2019-04-16T19:13:49.490Z,75.40
2019-04-16T19:16:18.187Z,75.40
2019-04-16T19:18:46.956Z,74.90
2019-04-16T19:21:15.651Z,74.30
2019-04-16T19:23:44.426Z,74.70
2019-04-16T19:26:13.129Z,75.10
2019-04-16T19:28:45.356Z,74.60
2019-04-16T19:31:12.246Z,74.10
2019-04-16T19:33:40.950Z,74.50
2019-04-16T19:36:09.726Z,74.30
2019-04-16T19:38:39.508Z,75.10
2019-04-16T19:41:08.858Z,75.20
2019-04-16T19:43:37.654Z,75.50
2019-04-16T19:46:06.551Z,75.20
2019-04-16T19:48:36.404Z,74.60
2019-04-16T19:51:07.187Z,74.60
2019-04-16T19:53:35.577Z,74.40
2019-04-16T19:56:04.354Z,74.70
2019-04-16T19:58:33.132Z,74.50
2019-04-16T20:01:01.932Z,74.70
2019-04-16T20:03:31.348Z,74.50
2019-04-16T20:06:00.108Z,74.50
2019-04-16T20:08:34.365Z,74.50
2019-04-16T20:10:59.623Z,74.30
2019-04-16T20:13:29.740Z,75.20
2019-04-16T20:16:00.091Z,73.40
2019-04-16T20:18:31.333Z,74.10
2019-04-16T20:21:01.066Z,74.20
2019-04-16T20:23:30.446Z,74.20
2019-04-16T20:26:00.375Z,74.20
2019-04-16T20:28:29.647Z,73.70
2019-04-16T20:31:03.182Z,73.90
2019-04-16T20:33:28.522Z,73.30
2019-04-16T20:35:57.215Z,73.80
2019-04-16T20:38:28.990Z,73.40
2019-04-16T20:40:56.327Z,73.10
2019-04-16T20:43:25.098Z,72.70
2019-04-16T20:45:53.884Z,71.70
2019-04-16T20:48:22.558Z,70.60
2019-04-16T20:50:53.052Z,70.10
2019-04-16T20:53:21.564Z,69.40
2019-04-16T20:55:50.246Z,70.00
2019-04-16T20:58:18.915Z,68.90
2019-04-16T21:00:49.226Z,68.30
2019-04-16T21:03:22.294Z,68.10
2019-04-16T21:05:57.787Z,67.80
2019-04-16T21:08:24.215Z,66.80
2019-04-16T21:10:48.851Z,66.90
2019-04-16T21:13:17.520Z,66.00
2019-04-16T21:15:46.198Z,66.20
2019-04-16T21:18:14.868Z,65.30
2019-04-16T21:20:43.543Z,64.90
2019-04-16T21:23:12.217Z,64.40
2019-04-16T21:25:42.925Z,64.70
2019-04-16T21:28:29.012Z,64.70
2019-04-16T21:30:59.327Z,64.40
2019-04-16T21:33:38.696Z,63.80
2019-04-16T21:36:11.993Z,64.00
2019-04-16T21:38:45.205Z,63.80
2019-04-16T21:41:12.697Z,63.90
2019-04-16T21:43:41.377Z,63.80
2019-04-16T21:46:10.127Z,63.30
2019-04-16T21:48:38.802Z,63.10
2019-04-16T21:51:07.766Z,63.00
2019-04-16T21:53:36.455Z,62.60
2019-04-16T21:56:08.143Z,62.80
2019-04-16T21:58:35.505Z,62.70
2019-04-16T22:01:14.979Z,63.00
2019-04-16T22:03:45.416Z,62.70
2019-04-16T22:06:14.089Z,62.30
2019-04-16T22:08:42.839Z,61.70
2019-04-16T22:11:11.882Z,61.70
2019-04-16T22:13:41.363Z,61.80
2019-04-16T22:16:10.054Z,61.30
2019-04-16T22:18:41.530Z,60.80
2019-04-16T22:21:10.991Z,60.80
2019-04-16T22:23:39.421Z,60.70
2019-04-16T22:26:10.833Z,60.90
2019-04-16T22:28:38.414Z,61.20
2019-04-16T22:31:07.091Z,61.50
2019-04-16T22:33:35.787Z,61.80
2019-04-16T22:36:04.529Z,61.30
2019-04-16T22:38:34.164Z,61.60
2019-04-16T22:41:16.296Z,61.60
2019-04-16T22:43:52.825Z,61.80
2019-04-16T22:46:28.879Z,62.20
2019-04-16T22:48:58.819Z,61.40
2019-04-16T22:51:27.558Z,61.50
2019-04-16T22:53:56.563Z,61.70
2019-04-16T22:56:28.408Z,61.20
2019-04-16T22:58:57.212Z,61.20
2019-04-16T23:01:30.331Z,62.00
2019-04-16T23:03:59.017Z,61.50
2019-04-16T23:06:27.687Z,61.60
2019-04-16T23:08:56.361Z,61.20
2019-04-16T23:11:25.026Z,61.20
2019-04-16T23:13:53.701Z,61.00
2019-04-16T23:16:22.379Z,61.00
2019-04-16T23:18:51.111Z,61.00
2019-04-16T23:21:19.782Z,61.20
2019-04-16T23:23:51.245Z,61.30
2019-04-16T23:26:18.757Z,61.40
2019-04-16T23:28:47.445Z,61.50
2019-04-16T23:31:16.252Z,61.70
2019-04-16T23:33:44.921Z,61.70
2019-04-16T23:36:16.507Z,61.50
2019-04-16T23:38:43.908Z,61.40
2019-04-16T23:41:16.091Z,61.90
2019-04-16T23:43:44.532Z,61.70
2019-04-16T23:46:27.113Z,62.00
2019-04-16T23:49:03.189Z,62.30
2019-04-16T23:51:36.279Z,62.60
2019-04-16T23:54:07.989Z,62.50
2019-04-16T23:56:38.602Z,62.50
2019-04-16T23:59:08.900Z,62.70
